sensor_id;sensor_type;location;lat;lon;timestamp;P1;durP1;ratioP1;P2;durP2;ratioP2
673;SDS011;319;48.764;9.174;2022-08-01T00:02:12;10.87;;;10.57;;
673;SDS011;319;48.764;9.174;2022-08-01T00:04:39;9.87;;;9.63;;
673;SDS011;319;48.764;9.174;2022-08-01T00:07:05;4.90;;;4.80;;
673;SDS011;319;48.764;9.174;2022-08-01T00:09:32;7.63;;;7.43;;
673;SDS011;319;48.764;9.174;2022-08-01T00:12:00;7.77;;;7.57;;
673;SDS011;319;48.764;9.174;2022-08-01T00:14:27;10.40;;;10.10;;
673;SDS011;319;48.764;9.174;2022-08-01T00:16:53;7.90;;;7.70;;
673;SDS011;319;48.764;9.174;2022-08-01T00:19:20;8.30;;;8.10;;
673;SDS011;319;48.764;9.174;2022-08-01T00:21:47;3.60;;;3.50;;
673;SDS011;319;48.764;9.174;2022-08-01T00:24:13;3.00;;;2.90;;
673;SDS011;319;48.764;9.174;2022-08-01T00:26:40;0.70;;;0.70;;
673;SDS011;319;48.764;9.174;2022-08-01T00:29:08;0.70;;;0.70;;
673;SDS011;319;48.764;9.174;2022-08-01T00:31:35;0.70;;;0.70;;
673;SDS011;319;48.764;9.174;2022-08-01T00:34:02;0.80;;;0.80;;
673;SDS011;319;48.764;9.174;2022-08-01T00:36:28;0.80;;;0.80;;
673;SDS011;319;48.764;9.174;2022-08-01T00:38:55;1.40;;;1.40;;
673;SDS011;319;48.764;9.174;2022-08-01T00:41:22;4.90;;;4.80;;
673;SDS011;319;48.764;9.174;2022-08-01T00:43:49;5.30;;;5.20;;
673;SDS011;319;48.764;9.174;2022-08-01T00:46:17;3.50;;;3.40;;
673;SDS011;319;48.764;9.174;2022-08-01T00:48:43;1.90;;;1.90;;
673;SDS011;319;48.764;9.174;2022-08-01T00:51:10;1.07;;;1.07;;
673;SDS011;319;48.764;9.174;2022-08-01T00:53:38;0.80;;;0.80;;
673;SDS011;319;48.764;9.174;2022-08-01T00:56:05;1.40;;;1.40;;
673;SDS011;319;48.764;9.174;2022-08-01T00:58:33;1.10;;;1.10;;
673;SDS011;319;48.764;9.174;2022-08-01T01:01:00;1.00;;;1.00;;
673;SDS011;319;48.764;9.174;2022-08-01T01:03:28;0.90;;;0.90;;
673;SDS011;319;48.764;9.174;2022-08-01T01:05:56;0.80;;;0.80;;
673;SDS011;319;48.764;9.174;2022-08-01T01:08:32;0.70;;;0.70;;
673;SDS011;319;48.764;9.174;2022-08-01T01:11:04;0.70;;;0.70;;
673;SDS011;319;48.764;9.174;2022-08-01T01:13:37;0.70;;;0.70;;
673;SDS011;319;48.764;9.174;2022-08-01T01:16:08;0.70;;;0.70;;
673;SDS011;319;48.764;9.174;2022-08-01T01:18:42;0.70;;;0.70;;
673;SDS011;319;48.764;9.174;2022-08-01T01:21:14;0.80;;;0.80;;
673;SDS011;319;48.764;9.174;2022-08-01T01:24:02;0.70;;;0.70;;
673;SDS011;319;48.764;9.174;2022-08-01T01:26:38;0.70;;;0.70;;
673;SDS011;319;48.764;9.174;2022-08-01T01:29:15;4.53;;;4.43;;
673;SDS011;319;48.764;9.174;2022-08-01T01:31:46;0.90;;;0.90;;
673;SDS011;319;48.764;9.174;2022-08-01T01:34:17;0.80;;;0.80;;
673;SDS011;319;48.764;9.174;2022-08-01T01:36:47;1.20;;;1.20;;
673;SDS011;319;48.764;9.174;2022-08-01T01:39:15;0.80;;;0.80;;
673;SDS011;319;48.764;9.174;2022-08-01T01:41:43;0.80;;;0.80;;
673;SDS011;319;48.764;9.174;2022-08-01T01:44:12;0.80;;;0.80;;
673;SDS011;319;48.764;9.174;2022-08-01T01:46:41;2.00;;;2.00;;
673;SDS011;319;48.764;9.174;2022-08-01T01:49:09;2.17;;;2.17;;
673;SDS011;319;48.764;9.174;2022-08-01T01:51:38;4.90;;;4.80;;
673;SDS011;319;48.764;9.174;2022-08-01T01:54:05;0.70;;;0.70;;
673;SDS011;319;48.764;9.174;2022-08-01T01:56:34;0.80;;;0.80;;
673;SDS011;319;48.764;9.174;2022-08-01T01:59:15;1.00;;;1.00;;
673;SDS011;319;48.764;9.174;2022-08-01T02:01:46;0.90;;;0.90;;
673;SDS011;319;48.764;9.174;2022-08-01T02:04:14;0.80;;;0.80;;
673;SDS011;319;48.764;9.174;2022-08-01T02:06:42;0.70;;;0.70;;
673;SDS011;319;48.764;9.174;2022-08-01T02:09:10;0.87;;;0.87;;
673;SDS011;319;48.764;9.174;2022-08-01T02:11:40;0.80;;;0.80;;
673;SDS011;319;48.764;9.174;2022-08-01T02:14:07;0.90;;;0.90;;
673;SDS011;319;48.764;9.174;2022-08-01T02:16:37;0.90;;;0.90;;
673;SDS011;319;48.764;9.174;2022-08-01T02:19:07;0.80;;;0.80;;
673;SDS011;319;48.764;9.174;2022-08-01T02:21:37;1.23;;;1.23;;
673;SDS011;319;48.764;9.174;2022-08-01T02:24:08;0.90;;;0.90;;
673;SDS011;319;48.764;9.174;2022-08-01T02:26:46;2.53;;;2.50;;
673;SDS011;319;48.764;9.174;2022-08-01T02:29:16;3.60;;;3.50;;
673;SDS011;319;48.764;9.174;2022-08-01T02:31:49;4.10;;;4.00;;
673;SDS011;319;48.764;9.174;2022-08-01T02:34:19;6.47;;;6.27;;
673;SDS011;319;48.764;9.174;2022-08-01T02:36:47;6.10;;;6.00;;
673;SDS011;319;48.764;9.174;2022-08-01T02:39:16;2.53;;;2.47;;
673;SDS011;319;48.764;9.174;2022-08-01T02:41:46;4.30;;;4.20;;
673;SDS011;319;48.764;9.174;2022-08-01T02:44:16;7.10;;;6.90;;
673;SDS011;319;48.764;9.174;2022-08-01T02:46:51;0.83;;;0.83;;
673;SDS011;319;48.764;9.174;2022-08-01T02:49:22;3.67;;;3.57;;
673;SDS011;319;48.764;9.174;2022-08-01T02:51:52;1.23;;;1.23;;
673;SDS011;319;48.764;9.174;2022-08-01T02:54:20;2.30;;;2.30;;
673;SDS011;319;48.764;9.174;2022-08-01T02:56:49;4.37;;;4.27;;
673;SDS011;319;48.764;9.174;2022-08-01T02:59:18;8.47;;;8.27;;
673;SDS011;319;48.764;9.174;2022-08-01T03:01:51;9.30;;;9.10;;
673;SDS011;319;48.764;9.174;2022-08-01T03:04:20;9.20;;;9.00;;
673;SDS011;319;48.764;9.174;2022-08-01T03:06:48;1.50;;;1.50;;
673;SDS011;319;48.764;9.174;2022-08-01T03:09:17;0.80;;;0.80;;
673;SDS011;319;48.764;9.174;2022-08-01T03:11:45;0.70;;;0.70;;
673;SDS011;319;48.764;9.174;2022-08-01T03:14:15;0.70;;;0.70;;
673;SDS011;319;48.764;9.174;2022-08-01T03:16:44;0.70;;;0.70;;
673;SDS011;319;48.764;9.174;2022-08-01T03:19:14;0.70;;;0.70;;
673;SDS011;319;48.764;9.174;2022-08-01T03:21:44;1.20;;;1.20;;
673;SDS011;319;48.764;9.174;2022-08-01T03:24:11;0.80;;;0.80;;
673;SDS011;319;48.764;9.174;2022-08-01T03:26:39;0.90;;;0.90;;
673;SDS011;319;48.764;9.174;2022-08-01T03:29:08;0.90;;;0.90;;
673;SDS011;319;48.764;9.174;2022-08-01T03:31:38;0.80;;;0.80;;
673;SDS011;319;48.764;9.174;2022-08-01T03:34:08;0.80;;;0.80;;
673;SDS011;319;48.764;9.174;2022-08-01T03:36:38;0.80;;;0.80;;
673;SDS011;319;48.764;9.174;2022-08-01T03:39:09;0.80;;;0.80;;
673;SDS011;319;48.764;9.174;2022-08-01T03:41:39;0.70;;;0.70;;
673;SDS011;319;48.764;9.174;2022-08-01T03:44:10;0.80;;;0.80;;
673;SDS011;319;48.764;9.174;2022-08-01T03:46:42;0.80;;;0.80;;
673;SDS011;319;48.764;9.174;2022-08-01T03:49:11;0.80;;;0.80;;
673;SDS011;319;48.764;9.174;2022-08-01T03:51:44;0.80;;;0.80;;
673;SDS011;319;48.764;9.174;2022-08-01T03:54:14;0.80;;;0.80;;
673;SDS011;319;48.764;9.174;2022-08-01T03:56:43;0.80;;;0.80;;
673;SDS011;319;48.764;9.174;2022-08-01T03:59:12;0.80;;;0.80;;
673;SDS011;319;48.764;9.174;2022-08-01T04:01:40;0.80;;;0.80;;
673;SDS011;319;48.764;9.174;2022-08-01T04:04:07;0.90;;;0.90;;
673;SDS011;319;48.764;9.174;2022-08-01T04:06:36;0.80;;;0.80;;
673;SDS011;319;48.764;9.174;2022-08-01T04:09:05;0.80;;;0.80;;
673;SDS011;319;48.764;9.174;2022-08-01T04:11:33;0.80;;;0.80;;
673;SDS011;319;48.764;9.174;2022-08-01T04:14:00;0.80;;;0.80;;
673;SDS011;319;48.764;9.174;2022-08-01T04:16:26;0.80;;;0.80;;
673;SDS011;319;48.764;9.174;2022-08-01T04:18:53;0.80;;;0.80;;
673;SDS011;319;48.764;9.174;2022-08-01T04:21:22;0.80;;;0.80;;
673;SDS011;319;48.764;9.174;2022-08-01T04:23:52;0.80;;;0.80;;
673;SDS011;319;48.764;9.174;2022-08-01T04:26:23;0.70;;;0.70;;
673;SDS011;319;48.764;9.174;2022-08-01T04:28:51;0.80;;;0.80;;
673;SDS011;319;48.764;9.174;2022-08-01T04:31:20;0.80;;;0.80;;
673;SDS011;319;48.764;9.174;2022-08-01T04:33:51;0.80;;;0.80;;
673;SDS011;319;48.764;9.174;2022-08-01T04:36:21;0.80;;;0.80;;
673;SDS011;319;48.764;9.174;2022-08-01T04:38:50;0.80;;;0.80;;
673;SDS011;319;48.764;9.174;2022-08-01T04:41:22;0.70;;;0.70;;
673;SDS011;319;48.764;9.174;2022-08-01T04:43:50;0.80;;;0.80;;
673;SDS011;319;48.764;9.174;2022-08-01T04:46:19;0.70;;;0.70;;
673;SDS011;319;48.764;9.174;2022-08-01T04:48:46;0.70;;;0.70;;
673;SDS011;319;48.764;9.174;2022-08-01T04:51:14;0.70;;;0.70;;
673;SDS011;319;48.764;9.174;2022-08-01T04:53:42;0.80;;;0.80;;
673;SDS011;319;48.764;9.174;2022-08-01T04:56:10;6.50;;;6.30;;
673;SDS011;319;48.764;9.174;2022-08-01T04:58:39;5.20;;;5.10;;
673;SDS011;319;48.764;9.174;2022-08-01T05:01:06;5.60;;;5.50;;
673;SDS011;319;48.764;9.174;2022-08-01T05:03:33;4.83;;;4.73;;
673;SDS011;319;48.764;9.174;2022-08-01T05:05:59;5.53;;;5.43;;
673;SDS011;319;48.764;9.174;2022-08-01T05:08:26;5.27;;;5.17;;
673;SDS011;319;48.764;9.174;2022-08-01T05:10:53;6.03;;;5.93;;
673;SDS011;319;48.764;9.174;2022-08-01T05:13:20;3.70;;;3.60;;
673;SDS011;319;48.764;9.174;2022-08-01T05:15:48;1.70;;;1.70;;
673;SDS011;319;48.764;9.174;2022-08-01T05:18:15;3.23;;;3.13;;
673;SDS011;319;48.764;9.174;2022-08-01T05:20:42;5.40;;;5.30;;
673;SDS011;319;48.764;9.174;2022-08-01T05:23:08;2.87;;;2.77;;
673;SDS011;319;48.764;9.174;2022-08-01T05:25:35;6.00;;;5.87;;
673;SDS011;319;48.764;9.174;2022-08-01T05:28:03;1.57;;;1.57;;
673;SDS011;319;48.764;9.174;2022-08-01T05:30:30;4.57;;;4.47;;
673;SDS011;319;48.764;9.174;2022-08-01T05:32:58;5.00;;;4.90;;
673;SDS011;319;48.764;9.174;2022-08-01T05:35:25;5.33;;;5.23;;
673;SDS011;319;48.764;9.174;2022-08-01T05:37:51;1.40;;;1.40;;
673;SDS011;319;48.764;9.174;2022-08-01T05:40:18;1.47;;;1.47;;
673;SDS011;319;48.764;9.174;2022-08-01T05:42:45;2.43;;;2.43;;
673;SDS011;319;48.764;9.174;2022-08-01T05:45:12;7.00;;;6.80;;
673;SDS011;319;48.764;9.174;2022-08-01T05:47:38;5.60;;;5.50;;
673;SDS011;319;48.764;9.174;2022-08-01T05:50:07;8.63;;;8.43;;
673;SDS011;319;48.764;9.174;2022-08-01T05:52:34;7.90;;;7.70;;
673;SDS011;319;48.764;9.174;2022-08-01T05:55:02;3.90;;;3.80;;
673;SDS011;319;48.764;9.174;2022-08-01T05:57:29;5.20;;;5.10;;
673;SDS011;319;48.764;9.174;2022-08-01T05:59:56;4.57;;;4.47;;
673;SDS011;319;48.764;9.174;2022-08-01T06:02:23;3.63;;;3.53;;
673;SDS011;319;48.764;9.174;2022-08-01T06:04:49;8.10;;;7.90;;
673;SDS011;319;48.764;9.174;2022-08-01T06:07:18;8.37;;;8.17;;
673;SDS011;319;48.764;9.174;2022-08-01T06:09:44;7.40;;;7.20;;
673;SDS011;319;48.764;9.174;2022-08-01T06:12:11;11.80;;;11.50;;
673;SDS011;319;48.764;9.174;2022-08-01T06:14:37;10.60;;;10.30;;
673;SDS011;319;48.764;9.174;2022-08-01T06:17:04;10.40;;;10.10;;
673;SDS011;319;48.764;9.174;2022-08-01T06:19:31;10.30;;;10.00;;
673;SDS011;319;48.764;9.174;2022-08-01T06:21:57;11.00;;;10.70;;
673;SDS011;319;48.764;9.174;2022-08-01T06:24:26;10.17;;;9.90;;
673;SDS011;319;48.764;9.174;2022-08-01T06:26:52;4.97;;;4.87;;
673;SDS011;319;48.764;9.174;2022-08-01T06:29:19;10.33;;;10.03;;
673;SDS011;319;48.764;9.174;2022-08-01T06:31:46;12.47;;;12.17;;
673;SDS011;319;48.764;9.174;2022-08-01T06:34:12;8.43;;;8.23;;
673;SDS011;319;48.764;9.174;2022-08-01T06:36:40;15.00;;;14.60;;
673;SDS011;319;48.764;9.174;2022-08-01T06:39:06;15.20;;;14.80;;
673;SDS011;319;48.764;9.174;2022-08-01T06:41:34;18.83;;;18.33;;
673;SDS011;319;48.764;9.174;2022-08-01T06:44:01;22.97;;;22.30;;
673;SDS011;319;48.764;9.174;2022-08-01T06:46:29;14.30;;;13.90;;
673;SDS011;319;48.764;9.174;2022-08-01T06:48:56;2.25;;;2.25;;
673;SDS011;319;48.764;9.174;2022-08-01T06:51:22;4.07;;;3.97;;
673;SDS011;319;48.764;9.174;2022-08-01T06:53:49;0.80;;;0.80;;
673;SDS011;319;48.764;9.174;2022-08-01T06:56:16;0.70;;;0.70;;
673;SDS011;319;48.764;9.174;2022-08-01T06:58:44;0.60;;;0.60;;
673;SDS011;319;48.764;9.174;2022-08-01T07:01:10;0.80;;;0.80;;
673;SDS011;319;48.764;9.174;2022-08-01T07:03:37;0.80;;;0.80;;
673;SDS011;319;48.764;9.174;2022-08-01T07:06:04;0.70;;;0.70;;
673;SDS011;319;48.764;9.174;2022-08-01T07:08:31;0.70;;;0.70;;
673;SDS011;319;48.764;9.174;2022-08-01T07:10:57;0.70;;;0.70;;
673;SDS011;319;48.764;9.174;2022-08-01T07:13:25;0.70;;;0.70;;
673;SDS011;319;48.764;9.174;2022-08-01T07:15:53;0.70;;;0.70;;
673;SDS011;319;48.764;9.174;2022-08-01T07:18:20;0.80;;;0.80;;
673;SDS011;319;48.764;9.174;2022-08-01T07:20:46;0.80;;;0.80;;
673;SDS011;319;48.764;9.174;2022-08-01T07:23:13;0.70;;;0.70;;
673;SDS011;319;48.764;9.174;2022-08-01T07:25:40;0.60;;;0.60;;
673;SDS011;319;48.764;9.174;2022-08-01T07:28:07;0.70;;;0.70;;
673;SDS011;319;48.764;9.174;2022-08-01T07:30:34;9.05;;;8.85;;
673;SDS011;319;48.764;9.174;2022-08-01T07:33:03;8.07;;;7.88;;
673;SDS011;319;48.764;9.174;2022-08-01T07:35:29;5.60;;;5.50;;
673;SDS011;319;48.764;9.174;2022-08-01T07:37:56;8.30;;;8.10;;
673;SDS011;319;48.764;9.174;2022-08-01T07:40:23;6.75;;;6.55;;
673;SDS011;319;48.764;9.174;2022-08-01T07:42:52;7.90;;;7.70;;
673;SDS011;319;48.764;9.174;2022-08-01T07:45:20;9.27;;;9.07;;
673;SDS011;319;48.764;9.174;2022-08-01T07:47:53;9.00;;;8.80;;
673;SDS011;319;48.764;9.174;2022-08-01T07:50:44;3.70;;;3.60;;
673;SDS011;319;48.764;9.174;2022-08-01T07:53:11;0.70;;;0.70;;
673;SDS011;319;48.764;9.174;2022-08-01T07:55:38;1.77;;;1.77;;
673;SDS011;319;48.764;9.174;2022-08-01T07:58:04;5.90;;;5.80;;
673;SDS011;319;48.764;9.174;2022-08-01T08:00:31;9.18;;;8.98;;
673;SDS011;319;48.764;9.174;2022-08-01T08:02:58;7.55;;;7.35;;
673;SDS011;319;48.764;9.174;2022-08-01T08:05:25;8.02;;;7.82;;
673;SDS011;319;48.764;9.174;2022-08-01T08:07:53;7.70;;;7.50;;
673;SDS011;319;48.764;9.174;2022-08-01T08:10:20;8.80;;;8.60;;
673;SDS011;319;48.764;9.174;2022-08-01T08:12:47;7.10;;;6.90;;
673;SDS011;319;48.764;9.174;2022-08-01T08:15:14;5.85;;;5.75;;
673;SDS011;319;48.764;9.174;2022-08-01T08:17:41;0.90;;;0.90;;
673;SDS011;319;48.764;9.174;2022-08-01T08:20:08;0.60;;;0.60;;
673;SDS011;319;48.764;9.174;2022-08-01T08:22:36;0.60;;;0.60;;
673;SDS011;319;48.764;9.174;2022-08-01T08:25:05;9.27;;;9.07;;
673;SDS011;319;48.764;9.174;2022-08-01T08:27:32;10.65;;;10.35;;
673;SDS011;319;48.764;9.174;2022-08-01T08:30:20;5.53;;;5.43;;
673;SDS011;319;48.764;9.174;2022-08-01T08:33:01;10.43;;;10.13;;
673;SDS011;319;48.764;9.174;2022-08-01T08:35:28;8.97;;;8.77;;
673;SDS011;319;48.764;9.174;2022-08-01T08:37:55;8.80;;;8.60;;
673;SDS011;319;48.764;9.174;2022-08-01T08:40:23;9.70;;;9.50;;
673;SDS011;319;48.764;9.174;2022-08-01T08:42:56;9.70;;;9.50;;
673;SDS011;319;48.764;9.174;2022-08-01T08:45:23;10.20;;;9.90;;
673;SDS011;319;48.764;9.174;2022-08-01T08:47:50;0.70;;;0.70;;
673;SDS011;319;48.764;9.174;2022-08-01T08:50:18;0.70;;;0.70;;
673;SDS011;319;48.764;9.174;2022-08-01T08:52:45;4.40;;;4.30;;
673;SDS011;319;48.764;9.174;2022-08-01T08:55:13;5.17;;;5.07;;
673;SDS011;319;48.764;9.174;2022-08-01T08:57:44;5.10;;;5.00;;
673;SDS011;319;48.764;9.174;2022-08-01T09:00:11;4.33;;;4.23;;
673;SDS011;319;48.764;9.174;2022-08-01T09:02:40;5.63;;;5.53;;
673;SDS011;319;48.764;9.174;2022-08-01T09:05:09;6.80;;;6.60;;
673;SDS011;319;48.764;9.174;2022-08-01T09:07:37;2.60;;;2.50;;
673;SDS011;319;48.764;9.174;2022-08-01T09:10:05;0.87;;;0.87;;
673;SDS011;319;48.764;9.174;2022-08-01T09:12:34;1.10;;;1.10;;
673;SDS011;319;48.764;9.174;2022-08-01T09:15:04;5.87;;;5.73;;
673;SDS011;319;48.764;9.174;2022-08-01T09:17:38;9.63;;;9.43;;
673;SDS011;319;48.764;9.174;2022-08-01T09:20:06;9.70;;;9.50;;
673;SDS011;319;48.764;9.174;2022-08-01T09:22:34;5.57;;;5.40;;
673;SDS011;319;48.764;9.174;2022-08-01T09:25:03;10.37;;;10.07;;
673;SDS011;319;48.764;9.174;2022-08-01T09:27:31;0.70;;;0.70;;
673;SDS011;319;48.764;9.174;2022-08-01T09:30:10;2.70;;;2.60;;
673;SDS011;319;48.764;9.174;2022-08-01T09:32:52;6.10;;;5.97;;
673;SDS011;319;48.764;9.174;2022-08-01T09:35:24;3.97;;;3.87;;
673;SDS011;319;48.764;9.174;2022-08-01T09:37:54;7.90;;;7.70;;
673;SDS011;319;48.764;9.174;2022-08-01T09:40:50;7.77;;;7.57;;
673;SDS011;319;48.764;9.174;2022-08-01T09:43:19;7.30;;;7.10;;
673;SDS011;319;48.764;9.174;2022-08-01T09:45:48;7.90;;;7.70;;
673;SDS011;319;48.764;9.174;2022-08-01T09:48:15;7.40;;;7.20;;
673;SDS011;319;48.764;9.174;2022-08-01T09:50:43;7.10;;;6.90;;
673;SDS011;319;48.764;9.174;2022-08-01T09:53:11;2.93;;;2.83;;
673;SDS011;319;48.764;9.174;2022-08-01T09:55:40;0.70;;;0.70;;
673;SDS011;319;48.764;9.174;2022-08-01T09:58:07;0.70;;;0.70;;
673;SDS011;319;48.764;9.174;2022-08-01T10:00:37;11.10;;;10.80;;
673;SDS011;319;48.764;9.174;2022-08-01T10:03:19;12.53;;;12.23;;
673;SDS011;319;48.764;9.174;2022-08-01T10:05:46;10.03;;;9.73;;
673;SDS011;319;48.764;9.174;2022-08-01T10:08:13;9.27;;;9.07;;
673;SDS011;319;48.764;9.174;2022-08-01T10:10:41;11.53;;;11.23;;
673;SDS011;319;48.764;9.174;2022-08-01T10:13:29;9.87;;;9.60;;
673;SDS011;319;48.764;9.174;2022-08-01T10:15:56;10.63;;;10.33;;
673;SDS011;319;48.764;9.174;2022-08-01T10:18:24;10.23;;;9.93;;
673;SDS011;319;48.764;9.174;2022-08-01T10:20:52;11.40;;;11.10;;
673;SDS011;319;48.764;9.174;2022-08-01T10:23:19;8.20;;;8.00;;
673;SDS011;319;48.764;9.174;2022-08-01T10:25:47;10.10;;;9.80;;
673;SDS011;319;48.764;9.174;2022-08-01T10:28:16;9.20;;;9.00;;
673;SDS011;319;48.764;9.174;2022-08-01T10:30:47;10.53;;;10.23;;
673;SDS011;319;48.764;9.174;2022-08-01T10:33:15;10.13;;;9.83;;
673;SDS011;319;48.764;9.174;2022-08-01T10:35:50;10.60;;;10.30;;
673;SDS011;319;48.764;9.174;2022-08-01T10:38:17;8.67;;;8.47;;
673;SDS011;319;48.764;9.174;2022-08-01T10:40:44;9.77;;;9.50;;
673;SDS011;319;48.764;9.174;2022-08-01T10:43:11;10.70;;;10.40;;
673;SDS011;319;48.764;9.174;2022-08-01T10:45:40;11.27;;;10.97;;
673;SDS011;319;48.764;9.174;2022-08-01T10:48:10;9.13;;;8.93;;
673;SDS011;319;48.764;9.174;2022-08-01T10:50:43;11.27;;;10.97;;
673;SDS011;319;48.764;9.174;2022-08-01T10:53:13;13.50;;;13.10;;
673;SDS011;319;48.764;9.174;2022-08-01T10:55:45;9.70;;;9.50;;
673;SDS011;319;48.764;9.174;2022-08-01T10:58:20;11.50;;;11.20;;
673;SDS011;319;48.764;9.174;2022-08-01T11:00:48;12.80;;;12.50;;
673;SDS011;319;48.764;9.174;2022-08-01T11:03:35;10.70;;;10.40;;
673;SDS011;319;48.764;9.174;2022-08-01T11:06:04;1.20;;;1.20;;
673;SDS011;319;48.764;9.174;2022-08-01T11:08:33;8.20;;;8.00;;
673;SDS011;319;48.764;9.174;2022-08-01T11:11:03;11.40;;;11.10;;
673;SDS011;319;48.764;9.174;2022-08-01T11:16:27;9.73;;;9.50;;
673;SDS011;319;48.764;9.174;2022-08-01T11:18:55;9.77;;;9.53;;
673;SDS011;319;48.764;9.174;2022-08-01T11:21:22;11.33;;;11.03;;
673;SDS011;319;48.764;9.174;2022-08-01T11:24:10;10.97;;;10.67;;
673;SDS011;319;48.764;9.174;2022-08-01T11:26:36;10.30;;;10.00;;
673;SDS011;319;48.764;9.174;2022-08-01T11:29:11;11.77;;;11.47;;
673;SDS011;319;48.764;9.174;2022-08-01T11:31:39;10.40;;;10.10;;
673;SDS011;319;48.764;9.174;2022-08-01T11:34:06;11.50;;;11.20;;
673;SDS011;319;48.764;9.174;2022-08-01T11:36:33;10.67;;;10.37;;
673;SDS011;319;48.764;9.174;2022-08-01T11:39:17;11.70;;;11.40;;
673;SDS011;319;48.764;9.174;2022-08-01T11:41:47;10.17;;;9.87;;
673;SDS011;319;48.764;9.174;2022-08-01T11:44:22;11.80;;;11.50;;
673;SDS011;319;48.764;9.174;2022-08-01T11:46:56;10.73;;;10.43;;
673;SDS011;319;48.764;9.174;2022-08-01T11:49:30;8.63;;;8.43;;
673;SDS011;319;48.764;9.174;2022-08-01T11:52:10;8.97;;;8.77;;
673;SDS011;319;48.764;9.174;2022-08-01T11:54:40;9.20;;;9.00;;
673;SDS011;319;48.764;9.174;2022-08-01T11:57:08;10.90;;;10.60;;
673;SDS011;319;48.764;9.174;2022-08-01T11:59:37;10.57;;;10.27;;
673;SDS011;319;48.764;9.174;2022-08-01T12:02:14;10.77;;;10.47;;
673;SDS011;319;48.764;9.174;2022-08-01T12:04:46;11.07;;;10.77;;
673;SDS011;319;48.764;9.174;2022-08-01T12:07:14;10.63;;;10.33;;
673;SDS011;319;48.764;9.174;2022-08-01T12:09:43;10.23;;;9.93;;
673;SDS011;319;48.764;9.174;2022-08-01T12:12:11;11.10;;;10.80;;
673;SDS011;319;48.764;9.174;2022-08-01T12:14:42;10.83;;;10.53;;
673;SDS011;319;48.764;9.174;2022-08-01T12:17:09;11.10;;;10.80;;
673;SDS011;319;48.764;9.174;2022-08-01T12:19:36;8.10;;;7.90;;
673;SDS011;319;48.764;9.174;2022-08-01T12:22:08;10.83;;;10.53;;
673;SDS011;319;48.764;9.174;2022-08-01T12:24:37;9.57;;;9.37;;
673;SDS011;319;48.764;9.174;2022-08-01T12:27:07;11.10;;;10.80;;
673;SDS011;319;48.764;9.174;2022-08-01T12:29:36;9.93;;;9.70;;
673;SDS011;319;48.764;9.174;2022-08-01T12:34:50;11.00;;;10.70;;
673;SDS011;319;48.764;9.174;2022-08-01T12:37:18;9.93;;;9.63;;
673;SDS011;319;48.764;9.174;2022-08-01T12:39:45;9.93;;;9.70;;
673;SDS011;319;48.764;9.174;2022-08-01T12:42:14;11.00;;;10.70;;
673;SDS011;319;48.764;9.174;2022-08-01T12:44:42;11.70;;;11.40;;
673;SDS011;319;48.764;9.174;2022-08-01T12:47:11;8.97;;;8.77;;
673;SDS011;319;48.764;9.174;2022-08-01T12:49:38;6.50;;;6.30;;
673;SDS011;319;48.764;9.174;2022-08-01T12:52:06;10.57;;;10.27;;
673;SDS011;319;48.764;9.174;2022-08-01T12:57:35;9.70;;;9.50;;
673;SDS011;319;48.764;9.174;2022-08-01T13:00:09;9.80;;;9.60;;
673;SDS011;319;48.764;9.174;2022-08-01T13:02:42;10.90;;;10.60;;
673;SDS011;319;48.764;9.174;2022-08-01T13:05:09;10.40;;;10.10;;
673;SDS011;319;48.764;9.174;2022-08-01T13:07:38;10.30;;;10.00;;
673;SDS011;319;48.764;9.174;2022-08-01T13:10:08;7.27;;;7.07;;
673;SDS011;319;48.764;9.174;2022-08-01T13:12:36;7.47;;;7.27;;
673;SDS011;319;48.764;9.174;2022-08-01T13:15:20;8.43;;;8.23;;
673;SDS011;319;48.764;9.174;2022-08-01T13:17:49;10.40;;;10.10;;
673;SDS011;319;48.764;9.174;2022-08-01T13:20:23;10.27;;;9.97;;
673;SDS011;319;48.764;9.174;2022-08-01T13:22:51;9.60;;;9.40;;
673;SDS011;319;48.764;9.174;2022-08-01T13:25:18;9.37;;;9.17;;
673;SDS011;319;48.764;9.174;2022-08-01T13:27:46;10.53;;;10.23;;
673;SDS011;319;48.764;9.174;2022-08-01T13:30:13;10.70;;;10.40;;
673;SDS011;319;48.764;9.174;2022-08-01T13:32:41;10.70;;;10.40;;
673;SDS011;319;48.764;9.174;2022-08-01T13:35:10;11.17;;;10.87;;
673;SDS011;319;48.764;9.174;2022-08-01T13:37:38;10.50;;;10.20;;
673;SDS011;319;48.764;9.174;2022-08-01T13:40:07;10.33;;;10.03;;
673;SDS011;319;48.764;9.174;2022-08-01T13:42:35;10.93;;;10.63;;
673;SDS011;319;48.764;9.174;2022-08-01T13:45:06;11.57;;;11.27;;
673;SDS011;319;48.764;9.174;2022-08-01T13:47:35;7.57;;;7.37;;
673;SDS011;319;48.764;9.174;2022-08-01T13:50:03;7.10;;;6.90;;
673;SDS011;319;48.764;9.174;2022-08-01T13:52:30;11.27;;;10.97;;
673;SDS011;319;48.764;9.174;2022-08-01T13:54:57;9.83;;;9.60;;
673;SDS011;319;48.764;9.174;2022-08-01T13:57:24;10.00;;;9.73;;
673;SDS011;319;48.764;9.174;2022-08-01T13:59:51;7.50;;;7.30;;
673;SDS011;319;48.764;9.174;2022-08-01T14:02:19;9.20;;;9.00;;
673;SDS011;319;48.764;9.174;2022-08-01T14:04:46;8.90;;;8.70;;
673;SDS011;319;48.764;9.174;2022-08-01T14:07:13;8.40;;;8.20;;
673;SDS011;319;48.764;9.174;2022-08-01T14:09:40;8.63;;;8.43;;
673;SDS011;319;48.764;9.174;2022-08-01T14:12:07;10.40;;;10.10;;
673;SDS011;319;48.764;9.174;2022-08-01T14:14:34;9.10;;;8.90;;
673;SDS011;319;48.764;9.174;2022-08-01T14:17:01;9.97;;;9.70;;
673;SDS011;319;48.764;9.174;2022-08-01T14:19:30;10.13;;;9.83;;
673;SDS011;319;48.764;9.174;2022-08-01T14:21:56;10.40;;;10.10;;
673;SDS011;319;48.764;9.174;2022-08-01T14:24:23;9.30;;;9.10;;
673;SDS011;319;48.764;9.174;2022-08-01T14:26:52;8.13;;;7.93;;
673;SDS011;319;48.764;9.174;2022-08-01T14:29:18;9.63;;;9.43;;
673;SDS011;319;48.764;9.174;2022-08-01T14:31:45;10.80;;;10.50;;
673;SDS011;319;48.764;9.174;2022-08-01T14:34:12;10.30;;;10.00;;
673;SDS011;319;48.764;9.174;2022-08-01T14:36:40;8.90;;;8.70;;
673;SDS011;319;48.764;9.174;2022-08-01T14:39:07;7.90;;;7.70;;
673;SDS011;319;48.764;9.174;2022-08-01T14:41:34;10.50;;;10.20;;
673;SDS011;319;48.764;9.174;2022-08-01T14:44:00;8.90;;;8.70;;
673;SDS011;319;48.764;9.174;2022-08-01T14:46:29;9.60;;;9.40;;
673;SDS011;319;48.764;9.174;2022-08-01T14:48:55;9.10;;;8.90;;
673;SDS011;319;48.764;9.174;2022-08-01T14:51:22;11.10;;;10.80;;
673;SDS011;319;48.764;9.174;2022-08-01T14:53:50;10.90;;;10.60;;
673;SDS011;319;48.764;9.174;2022-08-01T14:56:18;10.27;;;9.97;;
673;SDS011;319;48.764;9.174;2022-08-01T14:58:44;10.53;;;10.23;;
673;SDS011;319;48.764;9.174;2022-08-01T15:01:11;10.80;;;10.50;;
673;SDS011;319;48.764;9.174;2022-08-01T15:03:38;10.90;;;10.60;;
673;SDS011;319;48.764;9.174;2022-08-01T15:06:05;9.00;;;8.80;;
673;SDS011;319;48.764;9.174;2022-08-01T15:08:34;8.87;;;8.67;;
673;SDS011;319;48.764;9.174;2022-08-01T15:11:02;10.90;;;10.60;;
673;SDS011;319;48.764;9.174;2022-08-01T15:13:29;9.43;;;9.23;;
673;SDS011;319;48.764;9.174;2022-08-01T15:15:55;9.93;;;9.67;;
673;SDS011;319;48.764;9.174;2022-08-01T15:18:23;8.50;;;8.30;;
673;SDS011;319;48.764;9.174;2022-08-01T15:20:49;9.73;;;9.53;;
673;SDS011;319;48.764;9.174;2022-08-01T15:23:16;9.80;;;9.60;;
673;SDS011;319;48.764;9.174;2022-08-01T15:25:43;9.30;;;9.10;;
673;SDS011;319;48.764;9.174;2022-08-01T15:28:11;8.40;;;8.20;;
673;SDS011;319;48.764;9.174;2022-08-01T15:30:39;9.60;;;9.40;;
673;SDS011;319;48.764;9.174;2022-08-01T15:33:06;7.67;;;7.47;;
673;SDS011;319;48.764;9.174;2022-08-01T15:35:33;9.83;;;9.60;;
673;SDS011;319;48.764;9.174;2022-08-01T15:38:00;10.13;;;9.83;;
673;SDS011;319;48.764;9.174;2022-08-01T15:40:27;6.33;;;6.20;;
673;SDS011;319;48.764;9.174;2022-08-01T15:42:54;9.00;;;8.80;;
673;SDS011;319;48.764;9.174;2022-08-01T15:45:22;8.67;;;8.47;;
673;SDS011;319;48.764;9.174;2022-08-01T15:47:49;7.90;;;7.70;;
673;SDS011;319;48.764;9.174;2022-08-01T15:50:15;7.60;;;7.40;;
673;SDS011;319;48.764;9.174;2022-08-01T15:52:42;9.27;;;9.07;;
673;SDS011;319;48.764;9.174;2022-08-01T15:55:09;9.70;;;9.50;;
673;SDS011;319;48.764;9.174;2022-08-01T15:57:35;11.20;;;10.90;;